MET'MAP v2.0
soon released !

Expected late october,
this new version will be
more efficient, smarter,
and hosted on a brand new
server x3 powerfull...
...and still free !


Not compatible ?
Try the mobile version !

LOG IN : | Subscribe | Disclaimer | Who is Orbifly ? |
ICAO code :

TAF - LIRS Grosseto - 15 Dec 2019 19:49 UTC
Data Sources :     NOAA   


- Airport Elevation : 17 ft
- IATA code : GRS
- No reported NOTAMs.


LIRS - Grosseto

Latest METAR recorded : 2015/08/11 07:55 LIRS 110755Z 03002KT CAVOK 22/20 Q1011
TAF TAF LIRS
Valid from the 15 at 18:00 until the 16 at 03:00 UTC


151700Z 1518/1603 15010KT 9999 FEW020 SCT030

Source NOAA


MET'MAP, your aeronautical weather chart ! - Copyright ORBIFLY December 2007

Programming & Development : Alexandra Zaïnal
Co-Developer : Marc-Olivier Méhu
Technical & hardware support : Manuel Goepfert
Concept & Financing : Baudouin d'Aumeries